Flight Track Log - Related Links

Times and Time Zones

All times are in EDT time to prevent confusion due to time zone crossing. See the DAL4164 flight status page for this flight to view local times or setup timezone preferences in your user account.

Time Position Orientation Groundspeed Altitude Reporting Facility
EDT Latitude Longitude Course Direction KTS MPH feet Rate Location/Type
Sat 04:13:25 PM 42.1892 -83.3578 174° South 161 185 1,700  Level Cleveland Center
Sat 04:14:26 PM 42.1350 -83.3497 174° South 207 238 3,600 1,623 Climbing Cleveland Center
Sat 04:15:27 PM 42.0814 -83.3222 159° South 266 306 5,000 1,869 Climbing Cleveland Center
Sat 04:16:28 PM 42.0756 -83.2156 94° East 293 337 7,400 2,025 Climbing Cleveland Center
Sat 04:18:04 PM 42.1289 -83.0750 63° Northeast 302 348 10,300 1,500 Climbing Cleveland Center
Sat 04:19:04 PM 42.1708 -82.9617 63° Northeast 307 353 11,300 1,100 Climbing Cleveland Center
Sat 04:20:04 PM 42.2169 -82.8431 62° Northeast 332 382 12,500 1,300 Climbing Cleveland Center
Sat 04:21:04 PM 42.2653 -82.7211 62° Northeast 347 399 13,900 1,400 Climbing Cleveland Center
Sat 04:22:04 PM 42.3031 -82.5933 68° East 358 412 15,300 1,350 Climbing Cleveland Center
Sat 04:23:04 PM 42.3011 -82.4500 91° East 363 418 16,600 1,160 Climbing Cleveland Center
Sat 04:24:03 PM 42.3056 -82.3014 88° East 373 429 17,600 1,008 Climbing Cleveland Center
Sat 04:25:03 PM 42.3161 -82.1500 85° East 389 448 18,600 992 Climbing Cleveland Center
Sat 04:26:04 PM 42.3283 -82.0014 84° East 396 456 19,600 992 Climbing Cleveland Center
Sat 04:27:04 PM 42.3386 -81.8472 85° East 403 464 20,600 1,000 Climbing Cleveland Center
Sat 04:28:04 PM 42.3508 -81.6761 84° East 410 472 21,600 958 Climbing Cleveland Center
Sat 04:29:03 PM 42.3606 -81.5217 85° East 410 472 22,500 700 Climbing Cleveland Center
Sat 04:30:04 PM 42.3700 -81.3644 85° East 410 472 23,000 500 Climbing Cleveland Center
Sat 04:31:03 PM 42.3814 -81.2017 85° East 421 484 23,500 500 Climbing Cleveland Center
Sat 04:32:04 PM 42.3925 -81.0358 85° East 436 502 24,000 496 Climbing Cleveland Center
Sat 04:33:04 PM 42.4036 -80.8672 85° East 442 509 24,500 504 Climbing Cleveland Center
Sat 04:34:03 PM 42.4122 -80.7014 86° East 448 516 25,000 555 Climbing Cleveland Center
Sat 04:35:03 PM 42.4228 -80.5325 85° East 443 510 25,600 500 Climbing Cleveland Center
Sat 04:36:03 PM 42.4331 -80.3833 85° East 443 510 26,000 450 Climbing Cleveland Center
Sat 04:37:03 PM 42.4408 -80.2147 86° East 449 517 26,500 500 Climbing Cleveland Center
Sat 04:38:03 PM 42.4486 -80.0458 86° East 444 511 27,000 250 Climbing Cleveland Center
Sat 04:39:03 PM 42.4581 -79.8600 86° East 450 518 27,000  Level Cleveland Center
Sat 04:40:03 PM 42.4714 -79.6853 84° East 450 518 27,000  Level Cleveland Center
Sat 04:41:03 PM 42.4803 -79.5078 86° East 455 524 27,000  Level Cleveland Center
Sat 04:42:03 PM 42.4889 -79.3303 86° East 466 536 27,000  Level Cleveland Center
Sat 04:43:03 PM 42.5036 -79.1553 83° East 466 536 27,000  Level Cleveland Center
Sat 04:44:03 PM 42.5117 -78.9806 86° East 466 536 27,000  Level Cleveland Center
Sat 04:45:03 PM 42.5214 -78.8028 86° East 466 536 27,000  Level Cleveland Center
Sat 04:46:03 PM 42.5333 -78.6278 85° East 466 536 27,000  Level Cleveland Center
Sat 04:47:03 PM 42.5469 -78.4525 84° East 466 536 27,000  Level Cleveland Center
Sat 04:48:03 PM 42.5581 -78.2775 85° East 466 536 27,000  Level Cleveland Center
Sat 04:49:03 PM 42.5711 -78.0992 84° East 466 536 27,000  Level Cleveland Center
Sat 04:50:03 PM 42.5836 -77.9183 85° East 466 536 27,000  Level Cleveland Center
Sat 04:51:03 PM 42.5961 -77.7428 84° East 466 536 27,000  Level Cleveland Center
Sat 04:52:52 PM 42.6178 -77.4378 84° East 480 552 27,000  Level Boston Center
Sat 04:53:52 PM 42.6317 -77.2611 84° East 475 547 27,000  Level Boston Center
Sat 04:54:52 PM 42.6456 -77.0786 84° East 475 547 27,000  Level Boston Center
Sat 04:55:52 PM 42.6422 -76.8975 91° East 475 547 27,000  Level Boston Center
Sat 04:56:52 PM 42.6431 -76.7142 90° East 475 547 27,000  Level Boston Center
Sat 04:57:53 PM 42.6517 -76.5339 86° East 475 547 27,000  Level Boston Center
Sat 04:58:53 PM 42.6603 -76.3536 86° East 475 547 27,000  Level Boston Center
Sat 04:59:51 PM 42.6692 -76.1536 86° East 475 547 27,000  Level Boston Center
Sat 05:00:51 PM 42.6769 -75.9678 87° East 475 547 27,000  Level Boston Center
Sat 05:01:52 PM 42.6825 -75.7844 88° East 481 554 27,000  Level Boston Center
Sat 05:02:52 PM 42.6922 -75.5983 86° East 481 554 27,000  Level Boston Center
Sat 05:03:53 PM 42.6992 -75.4178 87° East 476 548 27,000  Level Boston Center
Sat 05:04:53 PM 42.7039 -75.2317 88° East 481 554 27,000  Level Boston Center
Sat 05:05:51 PM 42.7122 -75.0511 86° East 481 554 27,000  Level Boston Center
Sat 05:06:51 PM 42.7183 -74.8650 87° East 476 548 27,000  Level Boston Center
Sat 05:07:51 PM 42.7222 -74.6814 88° East 476 548 27,000  Level Boston Center
Sat 05:08:52 PM 42.7278 -74.4978 88° East 476 548 27,000 -148 Level Boston Center
Sat 05:09:53 PM 42.7331 -74.3142 88° East 476 548 26,700 -496 Descending Boston Center
Sat 05:10:53 PM 42.7381 -74.1222 88° East 481 554 26,000 -1,169 Descending Boston Center
Sat 05:11:51 PM 42.7428 -73.9414 88° East 481 554 24,400 -1,475 Descending Boston Center
Sat 05:12:51 PM 42.7492 -73.7606 87° East 481 554 23,100 -1,082 Descending Boston Center
Sat 05:13:53 PM 42.7550 -73.6022 87° East 471 542 22,200 -934 Descending Boston Center
Sat 05:14:53 PM 42.7631 -73.4269 86° East 466 536 21,200 -1,017 Descending Boston Center
Sat 05:15:51 PM 42.7706 -73.2575 86° East 460 529 20,200 -1,017 Descending Boston Center
Sat 05:16:51 PM 42.7736 -73.0878 89° East 455 524 19,200 -595 Descending Boston Center
Sat 05:17:52 PM 42.7786 -72.9181 88° East 455 524 19,000 -101 Descending Boston Center
Sat 05:18:50 PM 42.7833 -72.7542 88° East 445 512 19,000 -454 Level Boston Center
Sat 05:19:51 PM 42.7881 -72.5956 88° East 426 490 18,100 -1,426 Descending Boston Center
Sat 05:20:52 PM 42.7900 -72.4514 89° East 404 465 16,100 -2,016 Descending Boston Center
Sat 05:21:53 PM 42.7942 -72.3014 88° East 392 451 14,000 -2,118 Descending Boston Center
Sat 05:22:51 PM 42.8044 -72.1431 85° East 382 440 11,900 -1,714 Descending Boston Center
Sat 05:23:52 PM 42.8372 -72.0153 71° East 361 415 10,600 -1,190 Descending Boston Center
Sat 05:24:52 PM 42.8681 -71.9075 69° East 324 373 9,500 -1,339 Descending Boston Center
Sat 05:25:53 PM 42.9008 -71.8053 66° East 294 338 7,900 -1,513 Descending Boston Center
Sat 05:26:51 PM 42.9294 -71.7056 69° East 289 333 6,500 -1,500 Descending Boston Center
Sat 05:27:53 PM 42.9558 -71.6033 71° East 284 327 4,900 -1,050 Descending Boston Center
Sat 05:28:51 PM 42.9969 -71.5289 53° Northeast 259 298 4,400 -763 Descending Boston Center
Sat 05:29:51 PM 43.0278 -71.4744 52° Northeast 220 253 3,400 -1,140 Descending Boston Center
Sat 05:30:52 PM 43.0042 -71.4039 115° Southeast 161 185 2,100 -1,140 Descending Boston Center
Sat 05:31:52 PM 42.9667 -71.4044 181° South 131 151 1,100 3,508 Descending Boston Center
Sat 05:32:50 PM 42.9442 -71.4303 220° Southwest 121 139 9,000 3,983 Climbing Boston Center
Sat 05:33:51 PM 42.9086 -71.4394 191° South 121 139 9,000  Level Boston Center
Sat 05:34:51 PM 42.8775 -71.4542 199° South 121 139 9,000  Level Boston Center
Sat 05:35:53 PM 42.8464 -71.4689 199° South 121 139 9,000  Level Boston Center
Sat 05:37:00 PM 42.9167 -71.4333 316° Northwest  Level FlightAware Approximate
Sat 05:44:00 PM 42.9328 -71.4358 316° Northwest  Level Estimated
Sat 05:45:00 PM 42.9328 -71.4358 316° Northwest  Level Estimated
Sat 05:46:00 PM 42.9328 -71.4358 316° Northwest  Level Estimated
Sat 05:47:00 PM 42.9328 -71.4358 316° Northwest  Level Estimated
Sat 05:48:00 PM 42.9328 -71.4358 316° Northwest  Level Estimated

Login

Don't have an account? Register now (free) for customized features, flight alerts, and more!